createdAt,value
2023-05-25T00:00:06.647Z,13.99
2023-05-25T00:02:55.497Z,14.00
2023-05-25T00:05:27.822Z,14.01
2023-05-25T00:07:56.594Z,14.01
2023-05-25T00:10:25.359Z,13.98
2023-05-25T00:12:57.393Z,13.94
2023-05-25T00:15:26.175Z,13.92
2023-05-25T00:17:55.659Z,13.92
2023-05-25T00:20:24.981Z,13.88
2023-05-25T00:22:56.412Z,13.80
2023-05-25T00:25:25.136Z,13.66
2023-05-25T00:27:54.091Z,13.58
2023-05-25T00:30:23.131Z,13.50
2023-05-25T00:32:52.007Z,13.48
2023-05-25T00:35:20.845Z,13.55
2023-05-25T00:37:50.601Z,13.56
2023-05-25T00:40:20.605Z,13.56
2023-05-25T00:42:49.503Z,13.55
2023-05-25T00:45:18.359Z,13.56
2023-05-25T00:47:51.912Z,13.64
2023-05-25T00:50:36.524Z,13.75
2023-05-25T00:53:11.639Z,13.94
2023-05-25T00:56:05.440Z,14.08
2023-05-25T00:58:37.573Z,14.21
2023-05-25T01:01:12.001Z,14.32
2023-05-25T01:03:45.838Z,14.40
2023-05-25T01:06:19.220Z,14.49
2023-05-25T01:09:00.904Z,14.51
2023-05-25T01:11:35.562Z,14.44
2023-05-25T01:14:04.846Z,14.50
2023-05-25T01:16:37.934Z,14.42
2023-05-25T01:19:07.222Z,14.33
2023-05-25T01:21:43.018Z,14.30
2023-05-25T01:24:41.096Z,14.26
2023-05-25T01:27:33.416Z,14.23
2023-05-25T01:30:03.807Z,14.27
2023-05-25T01:32:33.586Z,14.30
2023-05-25T01:35:05.278Z,14.28
2023-05-25T01:37:37.940Z,14.30
2023-05-25T01:40:08.860Z,14.36
2023-05-25T01:42:37.645Z,14.41
2023-05-25T01:45:09.770Z,14.35
2023-05-25T01:48:14.936Z,14.31
2023-05-25T01:50:55.588Z,14.23
2023-05-25T01:53:36.123Z,14.21
2023-05-25T01:56:11.754Z,14.25
2023-05-25T01:58:49.041Z,14.31
2023-05-25T02:01:19.683Z,14.38
2023-05-25T02:03:49.567Z,14.32
2023-05-25T02:06:18.551Z,14.35
2023-05-25T02:08:47.343Z,14.42
2023-05-25T02:11:16.953Z,14.39
2023-05-25T02:13:46.992Z,14.39
2023-05-25T02:16:15.962Z,14.36
2023-05-25T02:18:46.621Z,14.33
2023-05-25T02:21:15.658Z,14.33
2023-05-25T02:23:44.496Z,14.41
2023-05-25T02:26:13.242Z,14.45
2023-05-25T02:28:42.089Z,14.49
2023-05-25T02:31:10.926Z,14.55
2023-05-25T02:33:39.667Z,14.58
2023-05-25T02:36:09.199Z,14.46
2023-05-25T02:38:38.358Z,14.62
2023-05-25T02:41:07.152Z,14.67
2023-05-25T02:43:35.848Z,14.75
2023-05-25T02:46:04.771Z,14.77
2023-05-25T02:48:33.781Z,14.75
2023-05-25T02:51:03.996Z,14.81
2023-05-25T02:53:33.126Z,14.88
2023-05-25T02:56:04.274Z,14.81
2023-05-25T02:58:34.351Z,14.87
2023-05-25T03:01:10.996Z,14.92
2023-05-25T03:03:52.669Z,14.96
2023-05-25T03:06:41.227Z,15.06
2023-05-25T03:09:16.710Z,15.02
2023-05-25T03:11:46.897Z,14.96
2023-05-25T03:14:18.456Z,14.97
2023-05-25T03:16:54.138Z,14.81
2023-05-25T03:19:23.699Z,14.77
2023-05-25T03:21:52.884Z,14.79
2023-05-25T03:24:21.744Z,14.90
2023-05-25T03:26:50.617Z,14.95
2023-05-25T03:29:19.492Z,15.03
2023-05-25T03:31:48.427Z,15.09
2023-05-25T03:34:17.267Z,15.15
2023-05-25T03:36:47.899Z,15.08
2023-05-25T03:39:18.230Z,15.32
2023-05-25T03:41:47.062Z,15.37
2023-05-25T03:44:17.071Z,15.47
2023-05-25T03:46:46.045Z,15.51
2023-05-25T03:49:16.084Z,15.49
2023-05-25T03:51:44.925Z,15.43
2023-05-25T03:54:14.322Z,15.40
2023-05-25T03:56:43.016Z,15.44
2023-05-25T03:59:12.412Z,15.51
2023-05-25T04:01:41.686Z,15.54
2023-05-25T04:04:10.765Z,15.60
2023-05-25T04:06:40.547Z,15.68
2023-05-25T04:09:09.333Z,15.75
2023-05-25T04:11:38.633Z,15.84
2023-05-25T04:14:07.938Z,16.01
2023-05-25T04:16:41.785Z,15.96
2023-05-25T04:19:11.483Z,15.85
2023-05-25T04:21:40.553Z,15.88
2023-05-25T04:24:09.662Z,15.93
2023-05-25T04:26:39.877Z,15.98
2023-05-25T04:29:10.397Z,16.07
2023-05-25T04:31:46.200Z,16.17
2023-05-25T04:34:15.660Z,16.25
2023-05-25T04:36:57.276Z,16.38
2023-05-25T04:39:29.392Z,16.53
2023-05-25T04:42:05.154Z,16.60
2023-05-25T04:44:39.420Z,16.70
2023-05-25T04:47:09.865Z,16.79
2023-05-25T04:49:40.692Z,16.83
2023-05-25T04:52:10.999Z,16.73
2023-05-25T04:54:42.226Z,16.79
2023-05-25T04:57:11.511Z,16.81
2023-05-25T04:59:40.610Z,16.84
2023-05-25T05:02:09.857Z,16.90
2023-05-25T05:04:41.685Z,16.97
2023-05-25T05:07:11.383Z,17.04
2023-05-25T05:09:40.519Z,17.05
2023-05-25T05:12:11.981Z,17.03
2023-05-25T05:14:46.871Z,17.07
2023-05-25T05:17:16.076Z,17.10
2023-05-25T05:19:45.141Z,17.17
2023-05-25T05:22:16.303Z,17.24
2023-05-25T05:24:46.861Z,17.23
2023-05-25T05:27:22.915Z,17.26
2023-05-25T05:29:57.224Z,17.31
2023-05-25T05:32:26.418Z,17.39
2023-05-25T05:34:55.733Z,17.44
2023-05-25T05:37:44.308Z,17.50
2023-05-25T05:40:13.584Z,17.57
2023-05-25T05:42:43.897Z,17.68
2023-05-25T05:45:14.386Z,17.83
2023-05-25T05:47:44.237Z,17.94
2023-05-25T05:50:13.344Z,18.07
2023-05-25T05:52:43.051Z,18.12
2023-05-25T05:55:13.163Z,18.23
2023-05-25T05:57:43.705Z,18.38
2023-05-25T06:00:14.595Z,18.54
2023-05-25T06:02:47.924Z,18.68
2023-05-25T06:05:21.703Z,18.78
2023-05-25T06:07:50.980Z,18.89
2023-05-25T06:10:21.578Z,18.92
2023-05-25T06:12:50.670Z,19.02
2023-05-25T06:15:19.652Z,19.19
2023-05-25T06:17:49.460Z,19.34
2023-05-25T06:20:18.399Z,19.49
2023-05-25T06:22:49.425Z,19.48
2023-05-25T06:25:18.283Z,19.58
2023-05-25T06:27:47.220Z,19.68
2023-05-25T06:30:16.361Z,19.66
2023-05-25T06:32:45.504Z,19.85
2023-05-25T06:35:20.051Z,19.94
2023-05-25T06:37:50.654Z,19.99
2023-05-25T06:40:20.716Z,20.08
2023-05-25T06:42:49.647Z,20.24
2023-05-25T06:46:05.562Z,20.43
2023-05-25T06:48:34.435Z,20.62
2023-05-25T06:51:04.832Z,20.81
2023-05-25T06:53:33.609Z,20.94
2023-05-25T06:56:02.356Z,20.98
2023-05-25T06:58:31.407Z,21.06
2023-05-25T07:01:01.373Z,21.15
2023-05-25T07:03:30.502Z,21.25
2023-05-25T07:05:59.300Z,21.31
2023-05-25T07:08:28.051Z,21.53
2023-05-25T07:10:56.930Z,21.47
2023-05-25T07:13:25.899Z,21.42
2023-05-25T07:15:54.753Z,21.43
2023-05-25T07:18:23.520Z,21.44
2023-05-25T07:20:53.417Z,21.46
2023-05-25T07:23:23.399Z,21.51
2023-05-25T07:25:52.504Z,21.59
2023-05-25T07:28:21.241Z,21.64
2023-05-25T07:30:50.022Z,21.73
2023-05-25T07:33:18.883Z,21.77
2023-05-25T07:35:47.649Z,21.81
2023-05-25T07:38:16.508Z,22.07
2023-05-25T07:40:47.582Z,22.16
2023-05-25T07:43:16.405Z,22.20
2023-05-25T07:45:45.483Z,22.28
2023-05-25T07:48:14.648Z,22.45
2023-05-25T07:50:43.857Z,22.65
2023-05-25T07:53:12.994Z,22.67
2023-05-25T07:55:41.967Z,22.83
2023-05-25T07:58:10.894Z,22.83
2023-05-25T08:00:40.083Z,22.91
2023-05-25T08:03:09.390Z,23.10
2023-05-25T08:05:38.694Z,23.16
2023-05-25T08:08:07.796Z,23.24
2023-05-25T08:10:36.783Z,23.41
2023-05-25T08:13:05.776Z,23.22
2023-05-25T08:15:34.803Z,23.27
2023-05-25T08:18:04.863Z,23.68
2023-05-25T08:20:34.249Z,23.79
2023-05-25T08:23:03.307Z,23.94
2023-05-25T08:25:32.274Z,24.03
2023-05-25T08:28:01.336Z,24.09
2023-05-25T08:30:31.084Z,24.00
2023-05-25T08:32:59.982Z,24.04
2023-05-25T08:35:29.000Z,23.79
2023-05-25T08:37:57.725Z,24.05
2023-05-25T08:40:31.144Z,24.46
2023-05-25T08:43:01.158Z,24.71
2023-05-25T08:45:34.902Z,24.70
2023-05-25T08:48:27.053Z,24.69
2023-05-25T08:51:11.489Z,25.04
2023-05-25T08:53:44.052Z,25.10
2023-05-25T09:03:20.898Z,25.48
2023-05-25T09:05:51.379Z,25.43
2023-05-25T09:08:22.335Z,25.75
2023-05-25T09:10:52.623Z,25.91
2023-05-25T09:13:22.798Z,25.76
2023-05-25T09:15:53.232Z,26.08
2023-05-25T09:18:22.119Z,25.96
2023-05-25T09:20:51.610Z,25.77
2023-05-25T09:23:21.656Z,26.04
2023-05-25T09:25:52.064Z,26.35
2023-05-25T09:30:53.848Z,26.19
2023-05-25T09:33:23.135Z,26.46
2023-05-25T09:35:52.441Z,26.48
2023-05-25T09:38:21.744Z,26.65
2023-05-25T09:40:51.704Z,26.78
2023-05-25T09:43:39.184Z,26.66
2023-05-25T09:46:11.599Z,26.63
2023-05-25T09:48:42.300Z,26.51
2023-05-25T09:51:12.529Z,26.50
2023-05-25T09:53:41.612Z,26.54
2023-05-25T09:56:12.921Z,26.39
2023-05-25T09:58:42.376Z,26.32
2023-05-25T10:01:12.254Z,26.35
2023-05-25T10:04:02.712Z,26.38
2023-05-25T10:06:36.392Z,26.25
2023-05-25T10:09:07.432Z,26.31
2023-05-25T10:11:40.056Z,26.31
2023-05-25T10:14:10.877Z,26.33
2023-05-25T10:16:42.692Z,26.13
2023-05-25T10:19:22.144Z,26.35
2023-05-25T10:22:32.206Z,26.79
2023-05-25T10:25:44.808Z,27.02
2023-05-25T10:28:23.058Z,27.37
2023-05-25T10:30:53.859Z,27.91
2023-05-25T10:33:23.555Z,28.10
2023-05-25T10:36:08.554Z,28.24
2023-05-25T10:38:45.021Z,28.06
2023-05-25T10:41:16.224Z,27.84
2023-05-25T10:43:45.794Z,28.29
2023-05-25T10:46:15.880Z,28.20
2023-05-25T10:49:00.965Z,28.52
2023-05-25T10:51:43.998Z,28.72
2023-05-25T10:54:15.074Z,28.61
2023-05-25T10:57:23.633Z,28.68
2023-05-25T11:00:00.407Z,29.15
2023-05-25T11:02:32.657Z,29.37
2023-05-25T11:05:40.754Z,29.29
2023-05-25T11:08:12.766Z,29.54
2023-05-25T11:10:54.493Z,29.82
2023-05-25T11:13:24.596Z,29.82
2023-05-25T11:16:34.871Z,29.92
2023-05-25T11:19:04.072Z,29.96
2023-05-25T11:21:44.350Z,29.66
2023-05-25T11:24:16.883Z,29.85
2023-05-25T11:26:58.110Z,29.39
2023-05-25T11:29:31.998Z,29.50
2023-05-25T11:32:01.566Z,29.52
2023-05-25T11:34:34.420Z,29.28
2023-05-25T11:37:04.203Z,28.89
2023-05-25T11:39:33.880Z,28.52
2023-05-25T11:42:07.154Z,28.37
2023-05-25T11:44:37.521Z,28.05
2023-05-25T11:47:23.652Z,27.77
2023-05-25T11:49:55.924Z,27.51
2023-05-25T11:52:25.101Z,27.33
2023-05-25T11:54:54.706Z,27.09
2023-05-25T11:57:26.075Z,26.77
2023-05-25T11:59:57.979Z,26.72
2023-05-25T12:02:27.211Z,26.84
2023-05-25T12:05:02.570Z,26.70
2023-05-25T12:07:32.380Z,26.64
2023-05-25T12:10:16.818Z,26.76
2023-05-25T12:12:58.576Z,26.95
2023-05-25T12:15:29.020Z,27.14
2023-05-25T12:17:58.138Z,27.35
2023-05-25T12:20:27.645Z,27.73
2023-05-25T12:22:56.706Z,27.77
2023-05-25T12:25:27.349Z,28.05
2023-05-25T12:28:15.201Z,28.36
2023-05-25T12:30:44.200Z,28.73
2023-05-25T12:33:15.008Z,28.33
2023-05-25T12:35:51.053Z,28.48
2023-05-25T12:38:24.066Z,28.52
2023-05-25T12:41:20.589Z,28.84
2023-05-25T12:43:50.556Z,29.32
2023-05-25T12:46:26.512Z,29.36
2023-05-25T12:48:56.592Z,29.88
2023-05-25T12:51:26.210Z,30.31
2023-05-25T12:53:55.254Z,30.98
2023-05-25T12:56:24.186Z,31.64
2023-05-25T12:58:53.299Z,32.13
2023-05-25T13:01:22.727Z,32.14
2023-05-25T13:11:48.196Z,32.92
2023-05-25T13:14:17.369Z,33.06
2023-05-25T13:16:46.688Z,33.45
2023-05-25T13:19:16.202Z,33.63
2023-05-25T13:21:46.284Z,32.99
2023-05-25T13:24:17.063Z,32.45
2023-05-25T13:26:51.074Z,32.80
2023-05-25T13:29:20.256Z,33.69
2023-05-25T13:31:49.441Z,34.07
2023-05-25T13:34:18.664Z,34.25
2023-05-25T13:36:47.865Z,33.74
2023-05-25T13:39:16.735Z,32.82
2023-05-25T13:41:46.748Z,31.43
2023-05-25T13:44:17.456Z,30.63
2023-05-25T13:46:47.020Z,30.53
2023-05-25T13:49:16.728Z,30.17
2023-05-25T13:51:45.958Z,29.36
2023-05-25T13:54:14.895Z,28.91
2023-05-25T13:56:44.217Z,29.01
2023-05-25T13:59:13.388Z,28.05
2023-05-25T14:01:42.638Z,28.24
2023-05-25T14:04:15.075Z,27.91
2023-05-25T14:06:44.356Z,27.42
2023-05-25T14:09:13.626Z,26.83
2023-05-25T14:11:44.362Z,26.47
2023-05-25T14:14:27.169Z,25.78
2023-05-25T14:17:01.642Z,25.36
2023-05-25T14:19:30.629Z,25.33
2023-05-25T14:22:12.444Z,25.04
2023-05-25T14:24:43.838Z,25.01
2023-05-25T14:27:12.867Z,25.03
2023-05-25T14:29:42.165Z,25.09
2023-05-25T14:32:11.273Z,24.97
2023-05-25T14:34:40.689Z,25.00
2023-05-25T14:37:09.878Z,25.00
2023-05-25T14:39:38.892Z,24.91
2023-05-25T14:42:08.394Z,25.02
2023-05-25T14:44:37.211Z,25.18
2023-05-25T14:47:06.781Z,25.37
2023-05-25T14:49:35.857Z,25.50
2023-05-25T14:52:05.061Z,25.34
2023-05-25T14:54:33.957Z,25.23
2023-05-25T14:57:02.960Z,25.07
2023-05-25T14:59:31.840Z,25.03
2023-05-25T15:02:01.399Z,24.91
2023-05-25T15:04:31.962Z,24.67
2023-05-25T15:07:00.870Z,24.58
2023-05-25T15:09:30.525Z,24.52
2023-05-25T15:12:00.389Z,24.52
2023-05-25T15:14:29.281Z,24.49
2023-05-25T15:16:58.375Z,24.51
2023-05-25T15:19:27.368Z,24.56
2023-05-25T15:21:56.464Z,24.67
2023-05-25T15:24:26.087Z,24.77
